sensor_id;sensor_type;location;lat;lon;timestamp;P1;durP1;ratioP1;P2;durP2;ratioP2
51566;SDS011;37657;53.182;5.638;2023-05-21T00:02:21;9.48;;;6.47;;
51566;SDS011;37657;53.182;5.638;2023-05-21T00:04:47;8.77;;;5.90;;
51566;SDS011;37657;53.182;5.638;2023-05-21T00:07:12;7.03;;;5.97;;
51566;SDS011;37657;53.182;5.638;2023-05-21T00:09:39;6.97;;;5.20;;
51566;SDS011;37657;53.182;5.638;2023-05-21T00:12:06;7.35;;;5.57;;
51566;SDS011;37657;53.182;5.638;2023-05-21T00:14:32;6.32;;;5.05;;
51566;SDS011;37657;53.182;5.638;2023-05-21T00:16:58;8.60;;;6.50;;
51566;SDS011;37657;53.182;5.638;2023-05-21T00:19:24;5.43;;;4.90;;
51566;SDS011;37657;53.182;5.638;2023-05-21T00:21:51;10.63;;;7.63;;
51566;SDS011;37657;53.182;5.638;2023-05-21T00:24:16;6.03;;;4.97;;
51566;SDS011;37657;53.182;5.638;2023-05-21T00:26:42;7.40;;;5.88;;
51566;SDS011;37657;53.182;5.638;2023-05-21T00:29:07;8.27;;;5.47;;
51566;SDS011;37657;53.182;5.638;2023-05-21T00:31:33;7.00;;;5.50;;
51566;SDS011;37657;53.182;5.638;2023-05-21T00:33:58;9.20;;;7.63;;
51566;SDS011;37657;53.182;5.638;2023-05-21T00:36:24;8.00;;;5.28;;
51566;SDS011;37657;53.182;5.638;2023-05-21T00:38:50;11.52;;;7.05;;
51566;SDS011;37657;53.182;5.638;2023-05-21T00:41:16;10.70;;;6.55;;
51566;SDS011;37657;53.182;5.638;2023-05-21T00:43:42;7.60;;;6.57;;
51566;SDS011;37657;53.182;5.638;2023-05-21T00:46:09;6.05;;;5.13;;
51566;SDS011;37657;53.182;5.638;2023-05-21T00:48:40;10.60;;;6.60;;
51566;SDS011;37657;53.182;5.638;2023-05-21T00:51:07;7.78;;;5.90;;
51566;SDS011;37657;53.182;5.638;2023-05-21T00:53:33;8.02;;;5.60;;
51566;SDS011;37657;53.182;5.638;2023-05-21T00:55:59;6.88;;;6.07;;
51566;SDS011;37657;53.182;5.638;2023-05-21T00:58:26;8.70;;;6.45;;
51566;SDS011;37657;53.182;5.638;2023-05-21T01:00:52;8.40;;;6.45;;
51566;SDS011;37657;53.182;5.638;2023-05-21T01:03:21;7.20;;;6.30;;
51566;SDS011;37657;53.182;5.638;2023-05-21T01:05:48;8.95;;;5.65;;
51566;SDS011;37657;53.182;5.638;2023-05-21T01:08:17;8.85;;;5.88;;
51566;SDS011;37657;53.182;5.638;2023-05-21T01:10:48;9.90;;;7.05;;
51566;SDS011;37657;53.182;5.638;2023-05-21T01:13:14;6.50;;;5.45;;
51566;SDS011;37657;53.182;5.638;2023-05-21T01:15:42;8.57;;;6.97;;
51566;SDS011;37657;53.182;5.638;2023-05-21T01:18:08;7.45;;;6.47;;
51566;SDS011;37657;53.182;5.638;2023-05-21T01:20:34;8.73;;;7.35;;
51566;SDS011;37657;53.182;5.638;2023-05-21T01:23:01;7.40;;;5.15;;
51566;SDS011;37657;53.182;5.638;2023-05-21T01:25:27;7.97;;;6.18;;
51566;SDS011;37657;53.182;5.638;2023-05-21T01:27:52;8.75;;;7.10;;
51566;SDS011;37657;53.182;5.638;2023-05-21T01:30:18;7.00;;;5.68;;
51566;SDS011;37657;53.182;5.638;2023-05-21T01:41:06;6.38;;;5.43;;
51566;SDS011;37657;53.182;5.638;2023-05-21T01:43:36;9.25;;;6.43;;
51566;SDS011;37657;53.182;5.638;2023-05-21T01:46:03;5.70;;;5.18;;
51566;SDS011;37657;53.182;5.638;2023-05-21T01:48:29;8.93;;;6.10;;
51566;SDS011;37657;53.182;5.638;2023-05-21T01:51:01;6.75;;;5.40;;
51566;SDS011;37657;53.182;5.638;2023-05-21T01:53:28;7.88;;;5.55;;
51566;SDS011;37657;53.182;5.638;2023-05-21T01:55:54;12.48;;;7.05;;
51566;SDS011;37657;53.182;5.638;2023-05-21T01:58:20;8.10;;;5.97;;
51566;SDS011;37657;53.182;5.638;2023-05-21T02:00:46;5.82;;;4.45;;
51566;SDS011;37657;53.182;5.638;2023-05-21T02:03:15;7.20;;;5.18;;
51566;SDS011;37657;53.182;5.638;2023-05-21T02:05:41;6.75;;;5.30;;
51566;SDS011;37657;53.182;5.638;2023-05-21T02:08:07;7.03;;;5.90;;
51566;SDS011;37657;53.182;5.638;2023-05-21T02:10:33;5.97;;;5.43;;
51566;SDS011;37657;53.182;5.638;2023-05-21T02:12:59;8.75;;;6.03;;
51566;SDS011;37657;53.182;5.638;2023-05-21T02:15:25;7.47;;;5.47;;
51566;SDS011;37657;53.182;5.638;2023-05-21T02:17:51;10.10;;;7.63;;
51566;SDS011;37657;53.182;5.638;2023-05-21T02:20:17;9.48;;;7.25;;
51566;SDS011;37657;53.182;5.638;2023-05-21T02:22:44;9.60;;;7.15;;
51566;SDS011;37657;53.182;5.638;2023-05-21T02:25:12;9.20;;;7.95;;
51566;SDS011;37657;53.182;5.638;2023-05-21T02:27:39;9.18;;;6.72;;
51566;SDS011;37657;53.182;5.638;2023-05-21T02:30:06;10.90;;;6.78;;
51566;SDS011;37657;53.182;5.638;2023-05-21T02:32:36;14.55;;;8.48;;
51566;SDS011;37657;53.182;5.638;2023-05-21T02:35:03;10.57;;;7.28;;
51566;SDS011;37657;53.182;5.638;2023-05-21T02:37:29;9.57;;;7.90;;
51566;SDS011;37657;53.182;5.638;2023-05-21T02:39:59;11.90;;;7.50;;
51566;SDS011;37657;53.182;5.638;2023-05-21T02:42:25;9.50;;;6.53;;
51566;SDS011;37657;53.182;5.638;2023-05-21T02:44:50;8.68;;;7.35;;
51566;SDS011;37657;53.182;5.638;2023-05-21T02:47:17;12.93;;;8.13;;
51566;SDS011;37657;53.182;5.638;2023-05-21T02:49:43;9.40;;;7.40;;
51566;SDS011;37657;53.182;5.638;2023-05-21T02:52:09;8.50;;;7.30;;
51566;SDS011;37657;53.182;5.638;2023-05-21T02:54:34;11.93;;;8.93;;
51566;SDS011;37657;53.182;5.638;2023-05-21T02:57:00;16.20;;;8.68;;
51566;SDS011;37657;53.182;5.638;2023-05-21T02:59:25;10.90;;;9.32;;
51566;SDS011;37657;53.182;5.638;2023-05-21T03:01:51;12.70;;;8.95;;
51566;SDS011;37657;53.182;5.638;2023-05-21T03:04:16;12.70;;;7.80;;
51566;SDS011;37657;53.182;5.638;2023-05-21T03:06:42;12.25;;;8.60;;
51566;SDS011;37657;53.182;5.638;2023-05-21T03:09:08;8.65;;;7.20;;
51566;SDS011;37657;53.182;5.638;2023-05-21T03:11:34;17.92;;;7.53;;
51566;SDS011;37657;53.182;5.638;2023-05-21T03:14:00;10.93;;;7.78;;
51566;SDS011;37657;53.182;5.638;2023-05-21T03:16:26;12.02;;;8.10;;
51566;SDS011;37657;53.182;5.638;2023-05-21T03:18:52;13.13;;;8.88;;
51566;SDS011;37657;53.182;5.638;2023-05-21T03:21:18;12.13;;;8.68;;
51566;SDS011;37657;53.182;5.638;2023-05-21T03:23:46;23.00;;;7.53;;
51566;SDS011;37657;53.182;5.638;2023-05-21T03:26:12;12.52;;;7.53;;
51566;SDS011;37657;53.182;5.638;2023-05-21T03:28:38;11.50;;;7.35;;
51566;SDS011;37657;53.182;5.638;2023-05-21T03:31:03;13.05;;;7.90;;
51566;SDS011;37657;53.182;5.638;2023-05-21T03:33:29;13.48;;;8.32;;
51566;SDS011;37657;53.182;5.638;2023-05-21T03:35:55;10.30;;;7.50;;
51566;SDS011;37657;53.182;5.638;2023-05-21T03:38:21;11.20;;;7.65;;
51566;SDS011;37657;53.182;5.638;2023-05-21T03:40:46;10.82;;;7.38;;
51566;SDS011;37657;53.182;5.638;2023-05-21T03:43:12;12.98;;;8.00;;
51566;SDS011;37657;53.182;5.638;2023-05-21T03:45:38;13.43;;;7.68;;
51566;SDS011;37657;53.182;5.638;2023-05-21T03:48:03;11.77;;;6.72;;
51566;SDS011;37657;53.182;5.638;2023-05-21T03:50:29;10.93;;;8.25;;
51566;SDS011;37657;53.182;5.638;2023-05-21T03:52:55;15.05;;;7.85;;
51566;SDS011;37657;53.182;5.638;2023-05-21T03:55:20;15.07;;;8.73;;
51566;SDS011;37657;53.182;5.638;2023-05-21T03:57:46;12.93;;;6.55;;
51566;SDS011;37657;53.182;5.638;2023-05-21T04:00:12;13.05;;;7.63;;
51566;SDS011;37657;53.182;5.638;2023-05-21T04:02:37;9.52;;;6.75;;
51566;SDS011;37657;53.182;5.638;2023-05-21T04:05:03;13.98;;;9.07;;
51566;SDS011;37657;53.182;5.638;2023-05-21T04:07:29;13.75;;;7.50;;
51566;SDS011;37657;53.182;5.638;2023-05-21T04:09:55;14.57;;;9.07;;
51566;SDS011;37657;53.182;5.638;2023-05-21T04:12:20;13.65;;;8.57;;
51566;SDS011;37657;53.182;5.638;2023-05-21T04:14:46;23.25;;;8.68;;
51566;SDS011;37657;53.182;5.638;2023-05-21T04:17:12;12.80;;;9.07;;
51566;SDS011;37657;53.182;5.638;2023-05-21T04:19:38;14.98;;;8.73;;
51566;SDS011;37657;53.182;5.638;2023-05-21T04:22:03;14.90;;;8.65;;
51566;SDS011;37657;53.182;5.638;2023-05-21T04:24:29;14.05;;;8.60;;
51566;SDS011;37657;53.182;5.638;2023-05-21T04:26:55;12.88;;;7.82;;
51566;SDS011;37657;53.182;5.638;2023-05-21T04:29:25;11.57;;;7.68;;
51566;SDS011;37657;53.182;5.638;2023-05-21T04:31:55;14.02;;;9.98;;
51566;SDS011;37657;53.182;5.638;2023-05-21T04:34:20;16.25;;;8.95;;
51566;SDS011;37657;53.182;5.638;2023-05-21T04:36:46;12.20;;;8.73;;
51566;SDS011;37657;53.182;5.638;2023-05-21T04:39:12;12.70;;;7.68;;
51566;SDS011;37657;53.182;5.638;2023-05-21T04:41:38;13.70;;;8.57;;
51566;SDS011;37657;53.182;5.638;2023-05-21T04:44:07;12.77;;;8.02;;
51566;SDS011;37657;53.182;5.638;2023-05-21T04:46:33;12.75;;;8.48;;
51566;SDS011;37657;53.182;5.638;2023-05-21T04:49:00;9.38;;;7.20;;
51566;SDS011;37657;53.182;5.638;2023-05-21T04:51:27;17.00;;;8.80;;
51566;SDS011;37657;53.182;5.638;2023-05-21T04:53:53;14.45;;;7.93;;
51566;SDS011;37657;53.182;5.638;2023-05-21T04:56:19;11.63;;;6.63;;
51566;SDS011;37657;53.182;5.638;2023-05-21T04:58:50;37.10;;;8.15;;
51566;SDS011;37657;53.182;5.638;2023-05-21T05:01:16;15.02;;;7.80;;
51566;SDS011;37657;53.182;5.638;2023-05-21T05:03:43;31.10;;;8.13;;
51566;SDS011;37657;53.182;5.638;2023-05-21T05:06:09;11.23;;;6.82;;
51566;SDS011;37657;53.182;5.638;2023-05-21T05:08:35;9.70;;;5.65;;
51566;SDS011;37657;53.182;5.638;2023-05-21T05:11:00;11.73;;;6.68;;
51566;SDS011;37657;53.182;5.638;2023-05-21T05:13:26;13.73;;;6.57;;
51566;SDS011;37657;53.182;5.638;2023-05-21T05:15:52;13.13;;;7.18;;
51566;SDS011;37657;53.182;5.638;2023-05-21T05:18:18;12.95;;;7.38;;
51566;SDS011;37657;53.182;5.638;2023-05-21T05:20:43;10.85;;;6.43;;
51566;SDS011;37657;53.182;5.638;2023-05-21T05:23:10;13.18;;;6.28;;
51566;SDS011;37657;53.182;5.638;2023-05-21T05:25:36;9.70;;;5.82;;
51566;SDS011;37657;53.182;5.638;2023-05-21T05:28:02;11.75;;;6.45;;
51566;SDS011;37657;53.182;5.638;2023-05-21T05:30:27;11.57;;;6.40;;
51566;SDS011;37657;53.182;5.638;2023-05-21T05:32:53;8.43;;;5.35;;
51566;SDS011;37657;53.182;5.638;2023-05-21T05:35:19;9.23;;;5.88;;
51566;SDS011;37657;53.182;5.638;2023-05-21T05:37:44;9.10;;;6.00;;
51566;SDS011;37657;53.182;5.638;2023-05-21T05:40:10;6.70;;;5.18;;
51566;SDS011;37657;53.182;5.638;2023-05-21T05:42:35;9.30;;;5.97;;
51566;SDS011;37657;53.182;5.638;2023-05-21T05:45:01;23.17;;;7.68;;
51566;SDS011;37657;53.182;5.638;2023-05-21T05:47:27;11.00;;;6.72;;
51566;SDS011;37657;53.182;5.638;2023-05-21T05:49:52;10.52;;;5.68;;
51566;SDS011;37657;53.182;5.638;2023-05-21T05:52:18;10.73;;;6.75;;
51566;SDS011;37657;53.182;5.638;2023-05-21T05:54:43;17.98;;;8.18;;
51566;SDS011;37657;53.182;5.638;2023-05-21T05:57:09;11.50;;;6.57;;
51566;SDS011;37657;53.182;5.638;2023-05-21T05:59:35;14.40;;;6.40;;
51566;SDS011;37657;53.182;5.638;2023-05-21T06:02:00;14.25;;;6.97;;
51566;SDS011;37657;53.182;5.638;2023-05-21T06:04:26;10.55;;;6.70;;
51566;SDS011;37657;53.182;5.638;2023-05-21T06:06:54;8.07;;;5.97;;
51566;SDS011;37657;53.182;5.638;2023-05-21T06:09:21;11.57;;;6.97;;
51566;SDS011;37657;53.182;5.638;2023-05-21T06:11:47;8.38;;;6.30;;
51566;SDS011;37657;53.182;5.638;2023-05-21T06:14:13;10.25;;;6.45;;
51566;SDS011;37657;53.182;5.638;2023-05-21T06:16:39;12.40;;;7.15;;
51566;SDS011;37657;53.182;5.638;2023-05-21T06:19:05;10.93;;;7.22;;
51566;SDS011;37657;53.182;5.638;2023-05-21T06:21:30;10.68;;;7.70;;
51566;SDS011;37657;53.182;5.638;2023-05-21T06:23:56;12.43;;;5.93;;
51566;SDS011;37657;53.182;5.638;2023-05-21T06:26:21;13.13;;;6.50;;
51566;SDS011;37657;53.182;5.638;2023-05-21T06:28:47;11.75;;;6.32;;
51566;SDS011;37657;53.182;5.638;2023-05-21T06:31:13;12.13;;;8.05;;
51566;SDS011;37657;53.182;5.638;2023-05-21T06:33:39;9.98;;;6.65;;
51566;SDS011;37657;53.182;5.638;2023-05-21T06:36:04;11.93;;;7.07;;
51566;SDS011;37657;53.182;5.638;2023-05-21T06:38:30;9.75;;;6.57;;
51566;SDS011;37657;53.182;5.638;2023-05-21T06:40:55;13.15;;;8.38;;
51566;SDS011;37657;53.182;5.638;2023-05-21T06:43:22;11.82;;;7.32;;
51566;SDS011;37657;53.182;5.638;2023-05-21T06:45:48;13.70;;;6.93;;
51566;SDS011;37657;53.182;5.638;2023-05-21T06:48:14;9.55;;;6.95;;
51566;SDS011;37657;53.182;5.638;2023-05-21T06:50:41;21.13;;;8.48;;
51566;SDS011;37657;53.182;5.638;2023-05-21T06:53:07;14.43;;;7.80;;
51566;SDS011;37657;53.182;5.638;2023-05-21T06:55:32;11.63;;;7.30;;
51566;SDS011;37657;53.182;5.638;2023-05-21T06:57:58;11.27;;;5.97;;
51566;SDS011;37657;53.182;5.638;2023-05-21T07:00:24;10.98;;;8.23;;
51566;SDS011;37657;53.182;5.638;2023-05-21T07:02:49;9.50;;;6.80;;
51566;SDS011;37657;53.182;5.638;2023-05-21T07:05:15;13.57;;;7.43;;
51566;SDS011;37657;53.182;5.638;2023-05-21T07:07:41;9.13;;;7.35;;
51566;SDS011;37657;53.182;5.638;2023-05-21T07:10:06;22.95;;;7.60;;
51566;SDS011;37657;53.182;5.638;2023-05-21T07:12:33;7.60;;;6.13;;
51566;SDS011;37657;53.182;5.638;2023-05-21T07:14:58;12.60;;;6.75;;
51566;SDS011;37657;53.182;5.638;2023-05-21T07:17:24;10.23;;;6.57;;
51566;SDS011;37657;53.182;5.638;2023-05-21T07:19:49;16.08;;;8.07;;
51566;SDS011;37657;53.182;5.638;2023-05-21T07:22:15;11.18;;;7.65;;
51566;SDS011;37657;53.182;5.638;2023-05-21T07:24:40;8.93;;;6.05;;
51566;SDS011;37657;53.182;5.638;2023-05-21T07:27:06;11.30;;;6.65;;
51566;SDS011;37657;53.182;5.638;2023-05-21T07:29:32;9.30;;;6.25;;
51566;SDS011;37657;53.182;5.638;2023-05-21T07:31:58;13.77;;;8.20;;
51566;SDS011;37657;53.182;5.638;2023-05-21T07:34:24;6.60;;;5.90;;
51566;SDS011;37657;53.182;5.638;2023-05-21T07:36:49;8.65;;;7.22;;
51566;SDS011;37657;53.182;5.638;2023-05-21T07:39:15;10.00;;;6.55;;
51566;SDS011;37657;53.182;5.638;2023-05-21T07:41:40;13.30;;;7.10;;
51566;SDS011;37657;53.182;5.638;2023-05-21T07:44:06;8.35;;;6.80;;
51566;SDS011;37657;53.182;5.638;2023-05-21T07:46:32;10.02;;;7.88;;
51566;SDS011;37657;53.182;5.638;2023-05-21T07:48:58;12.70;;;8.73;;
51566;SDS011;37657;53.182;5.638;2023-05-21T07:51:24;11.52;;;7.00;;
51566;SDS011;37657;53.182;5.638;2023-05-21T07:53:50;7.43;;;6.72;;
51566;SDS011;37657;53.182;5.638;2023-05-21T07:56:15;11.18;;;7.68;;
51566;SDS011;37657;53.182;5.638;2023-05-21T07:58:41;6.80;;;5.75;;
51566;SDS011;37657;53.182;5.638;2023-05-21T08:01:10;7.88;;;5.47;;
51566;SDS011;37657;53.182;5.638;2023-05-21T08:03:35;7.97;;;5.68;;
51566;SDS011;37657;53.182;5.638;2023-05-21T08:06:01;8.75;;;7.15;;
51566;SDS011;37657;53.182;5.638;2023-05-21T08:08:30;10.15;;;7.05;;
51566;SDS011;37657;53.182;5.638;2023-05-21T08:10:56;10.73;;;7.22;;
51566;SDS011;37657;53.182;5.638;2023-05-21T08:13:37;7.30;;;5.97;;
51566;SDS011;37657;53.182;5.638;2023-05-21T08:16:03;9.13;;;6.78;;
51566;SDS011;37657;53.182;5.638;2023-05-21T08:18:29;8.10;;;6.32;;
51566;SDS011;37657;53.182;5.638;2023-05-21T08:20:59;7.70;;;5.80;;
51566;SDS011;37657;53.182;5.638;2023-05-21T08:23:25;9.55;;;6.85;;
51566;SDS011;37657;53.182;5.638;2023-05-21T08:25:51;7.32;;;5.20;;
51566;SDS011;37657;53.182;5.638;2023-05-21T08:28:17;9.55;;;6.63;;
51566;SDS011;37657;53.182;5.638;2023-05-21T08:30:43;9.38;;;6.07;;
51566;SDS011;37657;53.182;5.638;2023-05-21T08:33:08;7.85;;;5.53;;
51566;SDS011;37657;53.182;5.638;2023-05-21T08:35:34;9.18;;;6.93;;
51566;SDS011;37657;53.182;5.638;2023-05-21T08:37:59;8.43;;;5.82;;
51566;SDS011;37657;53.182;5.638;2023-05-21T08:40:25;8.95;;;6.20;;
51566;SDS011;37657;53.182;5.638;2023-05-21T08:42:50;8.05;;;5.13;;
51566;SDS011;37657;53.182;5.638;2023-05-21T08:45:20;9.38;;;6.32;;
51566;SDS011;37657;53.182;5.638;2023-05-21T08:47:46;10.05;;;6.32;;
51566;SDS011;37657;53.182;5.638;2023-05-21T08:50:18;11.27;;;6.25;;
51566;SDS011;37657;53.182;5.638;2023-05-21T08:52:43;9.25;;;5.85;;
51566;SDS011;37657;53.182;5.638;2023-05-21T08:55:09;7.10;;;5.55;;
51566;SDS011;37657;53.182;5.638;2023-05-21T08:57:35;10.38;;;5.93;;
51566;SDS011;37657;53.182;5.638;2023-05-21T09:00:01;22.65;;;5.57;;
51566;SDS011;37657;53.182;5.638;2023-05-21T09:02:30;8.10;;;5.30;;
51566;SDS011;37657;53.182;5.638;2023-05-21T09:04:58;9.85;;;5.95;;
51566;SDS011;37657;53.182;5.638;2023-05-21T09:07:27;8.52;;;5.40;;
51566;SDS011;37657;53.182;5.638;2023-05-21T09:12:21;9.05;;;4.97;;
51566;SDS011;37657;53.182;5.638;2023-05-21T09:14:48;7.82;;;5.70;;
51566;SDS011;37657;53.182;5.638;2023-05-21T09:17:13;8.10;;;5.80;;
51566;SDS011;37657;53.182;5.638;2023-05-21T09:22:47;7.97;;;4.93;;
51566;SDS011;37657;53.182;5.638;2023-05-21T09:25:14;8.57;;;5.18;;
51566;SDS011;37657;53.182;5.638;2023-05-21T09:27:41;7.35;;;4.57;;
51566;SDS011;37657;53.182;5.638;2023-05-21T09:30:14;10.35;;;6.55;;
51566;SDS011;37657;53.182;5.638;2023-05-21T09:32:44;9.48;;;4.70;;
51566;SDS011;37657;53.182;5.638;2023-05-21T09:35:15;12.80;;;5.88;;
51566;SDS011;37657;53.182;5.638;2023-05-21T09:37:42;9.82;;;4.57;;
51566;SDS011;37657;53.182;5.638;2023-05-21T09:42:44;6.13;;;4.78;;
51566;SDS011;37657;53.182;5.638;2023-05-21T09:45:11;9.05;;;6.00;;
51566;SDS011;37657;53.182;5.638;2023-05-21T09:47:41;9.40;;;5.22;;
51566;SDS011;37657;53.182;5.638;2023-05-21T09:50:12;9.25;;;5.25;;
51566;SDS011;37657;53.182;5.638;2023-05-21T09:52:41;7.25;;;5.32;;
51566;SDS011;37657;53.182;5.638;2023-05-21T09:55:10;9.52;;;5.50;;
51566;SDS011;37657;53.182;5.638;2023-05-21T09:57:40;6.75;;;4.55;;
51566;SDS011;37657;53.182;5.638;2023-05-21T10:07:41;11.70;;;5.55;;
51566;SDS011;37657;53.182;5.638;2023-05-21T10:10:10;21.58;;;5.70;;
51566;SDS011;37657;53.182;5.638;2023-05-21T10:12:39;6.97;;;4.13;;
51566;SDS011;37657;53.182;5.638;2023-05-21T10:15:12;8.23;;;5.18;;
51566;SDS011;37657;53.182;5.638;2023-05-21T10:17:41;7.57;;;5.63;;
51566;SDS011;37657;53.182;5.638;2023-05-21T10:20:09;12.02;;;6.78;;
51566;SDS011;37657;53.182;5.638;2023-05-21T10:22:36;7.20;;;5.03;;
51566;SDS011;37657;53.182;5.638;2023-05-21T10:25:02;8.73;;;5.90;;
51566;SDS011;37657;53.182;5.638;2023-05-21T10:27:29;7.43;;;5.00;;
51566;SDS011;37657;53.182;5.638;2023-05-21T10:29:56;6.85;;;4.50;;
51566;SDS011;37657;53.182;5.638;2023-05-21T10:32:23;10.50;;;5.38;;
51566;SDS011;37657;53.182;5.638;2023-05-21T10:34:51;9.68;;;4.55;;
51566;SDS011;37657;53.182;5.638;2023-05-21T10:37:18;9.65;;;5.43;;
51566;SDS011;37657;53.182;5.638;2023-05-21T10:39:47;9.00;;;5.63;;
51566;SDS011;37657;53.182;5.638;2023-05-21T10:44:51;12.13;;;5.68;;
51566;SDS011;37657;53.182;5.638;2023-05-21T10:47:39;7.70;;;4.88;;
51566;SDS011;37657;53.182;5.638;2023-05-21T10:50:25;8.30;;;4.50;;
51566;SDS011;37657;53.182;5.638;2023-05-21T10:53:07;7.00;;;4.65;;
51566;SDS011;37657;53.182;5.638;2023-05-21T10:59:03;11.45;;;6.05;;
51566;SDS011;37657;53.182;5.638;2023-05-21T11:01:36;9.63;;;4.45;;
51566;SDS011;37657;53.182;5.638;2023-05-21T11:04:03;11.05;;;5.03;;
51566;SDS011;37657;53.182;5.638;2023-05-21T11:06:32;5.85;;;3.97;;
51566;SDS011;37657;53.182;5.638;2023-05-21T11:09:01;5.70;;;4.05;;
51566;SDS011;37657;53.182;5.638;2023-05-21T11:11:40;8.98;;;3.88;;
51566;SDS011;37657;53.182;5.638;2023-05-21T11:16:55;5.75;;;5.15;;
51566;SDS011;37657;53.182;5.638;2023-05-21T11:19:25;9.70;;;4.43;;
51566;SDS011;37657;53.182;5.638;2023-05-21T11:22:03;8.07;;;4.38;;
51566;SDS011;37657;53.182;5.638;2023-05-21T11:24:35;8.32;;;4.65;;
51566;SDS011;37657;53.182;5.638;2023-05-21T11:27:03;7.18;;;4.38;;
51566;SDS011;37657;53.182;5.638;2023-05-21T11:29:40;11.75;;;3.83;;
51566;SDS011;37657;53.182;5.638;2023-05-21T11:32:08;6.65;;;4.63;;
51566;SDS011;37657;53.182;5.638;2023-05-21T11:34:54;7.38;;;4.38;;
51566;SDS011;37657;53.182;5.638;2023-05-21T11:37:27;6.32;;;4.50;;
51566;SDS011;37657;53.182;5.638;2023-05-21T11:39:55;11.25;;;3.75;;
51566;SDS011;37657;53.182;5.638;2023-05-21T11:42:32;8.90;;;4.68;;
51566;SDS011;37657;53.182;5.638;2023-05-21T11:45:08;8.55;;;4.28;;
51566;SDS011;37657;53.182;5.638;2023-05-21T11:47:34;6.38;;;4.65;;
51566;SDS011;37657;53.182;5.638;2023-05-21T11:50:00;8.70;;;5.00;;
51566;SDS011;37657;53.182;5.638;2023-05-21T11:52:29;7.72;;;5.35;;
51566;SDS011;37657;53.182;5.638;2023-05-21T11:55:07;8.80;;;5.35;;
51566;SDS011;37657;53.182;5.638;2023-05-21T11:57:33;6.07;;;4.18;;
51566;SDS011;37657;53.182;5.638;2023-05-21T11:59:59;9.57;;;5.53;;
51566;SDS011;37657;53.182;5.638;2023-05-21T12:02:31;11.32;;;5.15;;
51566;SDS011;37657;53.182;5.638;2023-05-21T12:04:57;7.53;;;5.40;;
51566;SDS011;37657;53.182;5.638;2023-05-21T12:07:25;6.70;;;5.20;;
51566;SDS011;37657;53.182;5.638;2023-05-21T12:09:52;11.10;;;7.78;;
51566;SDS011;37657;53.182;5.638;2023-05-21T12:12:23;7.55;;;5.15;;
51566;SDS011;37657;53.182;5.638;2023-05-21T12:14:51;9.02;;;5.30;;
51566;SDS011;37657;53.182;5.638;2023-05-21T12:17:19;9.20;;;5.32;;
51566;SDS011;37657;53.182;5.638;2023-05-21T12:19:55;9.30;;;5.60;;
51566;SDS011;37657;53.182;5.638;2023-05-21T12:22:21;12.23;;;5.07;;
51566;SDS011;37657;53.182;5.638;2023-05-21T12:24:48;6.75;;;4.93;;
51566;SDS011;37657;53.182;5.638;2023-05-21T12:27:14;7.00;;;4.72;;
51566;SDS011;37657;53.182;5.638;2023-05-21T12:29:44;7.32;;;5.13;;
51566;SDS011;37657;53.182;5.638;2023-05-21T12:32:11;16.17;;;6.43;;
51566;SDS011;37657;53.182;5.638;2023-05-21T12:34:45;8.93;;;4.95;;
51566;SDS011;37657;53.182;5.638;2023-05-21T12:39:42;6.80;;;4.25;;
51566;SDS011;37657;53.182;5.638;2023-05-21T12:42:09;8.82;;;4.40;;
51566;SDS011;37657;53.182;5.638;2023-05-21T12:44:37;7.22;;;4.60;;
51566;SDS011;37657;53.182;5.638;2023-05-21T12:47:04;13.13;;;5.53;;
51566;SDS011;37657;53.182;5.638;2023-05-21T12:49:37;9.15;;;4.93;;
51566;SDS011;37657;53.182;5.638;2023-05-21T12:52:07;10.50;;;5.23;;
51566;SDS011;37657;53.182;5.638;2023-05-21T12:54:34;10.63;;;5.90;;
51566;SDS011;37657;53.182;5.638;2023-05-21T12:57:35;12.95;;;6.32;;
51566;SDS011;37657;53.182;5.638;2023-05-21T13:00:00;11.10;;;5.55;;
51566;SDS011;37657;53.182;5.638;2023-05-21T13:02:30;11.38;;;5.57;;
51566;SDS011;37657;53.182;5.638;2023-05-21T13:07:24;11.85;;;6.50;;
51566;SDS011;37657;53.182;5.638;2023-05-21T13:09:53;9.98;;;5.85;;
51566;SDS011;37657;53.182;5.638;2023-05-21T13:12:20;8.45;;;6.13;;
51566;SDS011;37657;53.182;5.638;2023-05-21T13:14:47;14.48;;;7.20;;
51566;SDS011;37657;53.182;5.638;2023-05-21T13:17:17;9.30;;;7.03;;
51566;SDS011;37657;53.182;5.638;2023-05-21T13:19:55;9.18;;;6.35;;
51566;SDS011;37657;53.182;5.638;2023-05-21T13:22:40;16.48;;;7.50;;
51566;SDS011;37657;53.182;5.638;2023-05-21T13:25:07;8.93;;;6.60;;
51566;SDS011;37657;53.182;5.638;2023-05-21T13:27:34;8.25;;;6.97;;
51566;SDS011;37657;53.182;5.638;2023-05-21T13:30:00;10.82;;;6.75;;
51566;SDS011;37657;53.182;5.638;2023-05-21T13:32:25;12.48;;;7.32;;
51566;SDS011;37657;53.182;5.638;2023-05-21T13:34:51;17.75;;;8.40;;
51566;SDS011;37657;53.182;5.638;2023-05-21T13:37:17;10.57;;;6.78;;
51566;SDS011;37657;53.182;5.638;2023-05-21T13:39:44;9.98;;;7.78;;
51566;SDS011;37657;53.182;5.638;2023-05-21T13:42:09;8.88;;;7.22;;
51566;SDS011;37657;53.182;5.638;2023-05-21T13:44:35;11.48;;;6.45;;
51566;SDS011;37657;53.182;5.638;2023-05-21T13:47:04;12.93;;;7.03;;
51566;SDS011;37657;53.182;5.638;2023-05-21T13:49:31;10.23;;;6.53;;
51566;SDS011;37657;53.182;5.638;2023-05-21T13:51:57;11.45;;;7.10;;
51566;SDS011;37657;53.182;5.638;2023-05-21T13:54:24;12.63;;;6.15;;
51566;SDS011;37657;53.182;5.638;2023-05-21T13:56:50;14.50;;;7.47;;
51566;SDS011;37657;53.182;5.638;2023-05-21T13:59:16;12.65;;;8.00;;
51566;SDS011;37657;53.182;5.638;2023-05-21T14:01:42;10.45;;;8.13;;
51566;SDS011;37657;53.182;5.638;2023-05-21T14:04:11;12.90;;;7.75;;
51566;SDS011;37657;53.182;5.638;2023-05-21T14:06:37;13.73;;;6.13;;
51566;SDS011;37657;53.182;5.638;2023-05-21T14:09:03;11.07;;;9.38;;
51566;SDS011;37657;53.182;5.638;2023-05-21T14:11:29;11.82;;;9.73;;
51566;SDS011;37657;53.182;5.638;2023-05-21T14:13:56;11.18;;;8.75;;
51566;SDS011;37657;53.182;5.638;2023-05-21T14:16:22;13.20;;;8.88;;
51566;SDS011;37657;53.182;5.638;2023-05-21T14:18:50;10.90;;;8.77;;
51566;SDS011;37657;53.182;5.638;2023-05-21T14:21:15;15.23;;;10.40;;
51566;SDS011;37657;53.182;5.638;2023-05-21T14:23:41;14.32;;;9.80;;
51566;SDS011;37657;53.182;5.638;2023-05-21T14:26:07;17.42;;;9.90;;
51566;SDS011;37657;53.182;5.638;2023-05-21T14:28:32;17.08;;;12.45;;
51566;SDS011;37657;53.182;5.638;2023-05-21T14:30:58;16.42;;;11.50;;
51566;SDS011;37657;53.182;5.638;2023-05-21T14:33:23;15.70;;;12.48;;
51566;SDS011;37657;53.182;5.638;2023-05-21T14:35:49;17.30;;;12.73;;
51566;SDS011;37657;53.182;5.638;2023-05-21T14:38:14;13.80;;;11.45;;
51566;SDS011;37657;53.182;5.638;2023-05-21T14:40:40;18.83;;;13.85;;
51566;SDS011;37657;53.182;5.638;2023-05-21T14:43:05;16.83;;;13.38;;
51566;SDS011;37657;53.182;5.638;2023-05-21T14:45:31;15.32;;;12.70;;
51566;SDS011;37657;53.182;5.638;2023-05-21T14:47:59;13.68;;;11.40;;
51566;SDS011;37657;53.182;5.638;2023-05-21T14:50:25;16.13;;;13.20;;
51566;SDS011;37657;53.182;5.638;2023-05-21T14:52:51;14.80;;;12.85;;
51566;SDS011;37657;53.182;5.638;2023-05-21T14:55:17;18.15;;;12.77;;
51566;SDS011;37657;53.182;5.638;2023-05-21T14:57:46;15.40;;;12.05;;
51566;SDS011;37657;53.182;5.638;2023-05-21T15:00:11;14.52;;;11.48;;
51566;SDS011;37657;53.182;5.638;2023-05-21T15:02:38;16.75;;;11.55;;
51566;SDS011;37657;53.182;5.638;2023-05-21T15:05:04;15.18;;;12.68;;
51566;SDS011;37657;53.182;5.638;2023-05-21T15:07:30;13.07;;;11.68;;
51566;SDS011;37657;53.182;5.638;2023-05-21T15:09:55;18.20;;;11.82;;
51566;SDS011;37657;53.182;5.638;2023-05-21T15:12:21;14.05;;;10.82;;
51566;SDS011;37657;53.182;5.638;2023-05-21T15:14:46;13.50;;;12.07;;
51566;SDS011;37657;53.182;5.638;2023-05-21T15:17:12;11.77;;;10.57;;
51566;SDS011;37657;53.182;5.638;2023-05-21T15:19:38;15.25;;;11.10;;